x

Northern Hawaii One - 245nm Ne Of Honolulu Hi (51000) Wave Buoy

7:50pm - Fri 26th Dec 2014 All times are HST. -10 hours from GMT.

  • Sig Wave height 8.9ft
  • Peak Period 9s
  • Average Period 7s
  • Wind
    16mph, 18mph gusts
  • Sea Temp 76°f
  • Air Temp 73°f
  • Sea Pressure 1007.8mb
  • Northern Hawaii One - 245nm Ne Of Honolulu Hi
  • Northern Hawaii One - 245nm Ne Of Honolulu Hi

More Historic Weather Station data

Upgrade to MSW Pro to gain access to the past 30 days of data for over 8000 Wavebouys and Weather Stations around the globe.

Join Pro

Comparision Forecast

View Surf forecast
   
Fri 12/26 7:50pm 9ft 9s 7s 16 18 mph 1007.8mb 76f 73f
6:50pm 8.5ft 9s 7s 16 18 mph 1007.5mb 76f 73f
5:50pm  -   -   -  16 18 mph 1006.8mb 76f 73f
4:50pm  -   -   -  16 20 mph 1006.5mb 76f 74f
3:50pm 8ft 8s 7s 16 18 mph 1006.2mb 76f 74f
2:50pm 8ft 8s 7s 16 22 mph 1005.7mb 76f 73f
1:50pm  -   -   -  16 18 mph 1006mb 76f 74f
12:50pm 9ft 9s 7s 16 18 mph 1006.4mb 76f 73f
11:50am 8ft 9s 7s 18 25 mph 1007.6mb 75f 73f
10:50am 7.5ft 9s 7s 13 18 mph 1008.1mb 75f 73f
9:50am 8.5ft 10s 7s 13 20 mph 1008.2mb 75f 73f
8:50am 9ft 9s 7s 11 16 mph 1007.5mb 75f 73f
7:50am 9ft 10s 6s 16 20 mph 1007.1mb 75f 74f
6:50am  -   -   -  18 20 mph 1006.4mb 75f 74f
5:50am  -   -   -  18
mph
1006.1mb 75f 72f
4:50am  -   -   -  18 22 mph 1005.8mb 75f 73f
3:50am  -   -   -  18 27 mph 1005.3mb 75f 73f
2:50am  -   -   -  20 25 mph 1005.2mb 75f 73f
1:50am 10ft 9s 7s 25 29 mph 1005.2mb 75f 73f
12:50am  -   -   -  18 22 mph 1005.6mb 75f 73f
Thu 12/25 11:50pm  -   -   -  20 25 mph 1005.8mb 75f 73f
10:50pm  -   -   -  18 22 mph 1005.9mb 75f 73f
9:50pm  -   -   -  20 25 mph 1005.9mb 75f 72f
8:50pm  -   -   -  20 22 mph 1005.8mb 75f 73f
7:50pm 10.5ft 11s 7s 20 25 mph 1005.5mb 75f 74f
6:50pm  -   -   -  20 29 mph 1005.1mb 75f 74f
5:50pm 10ft 10s 7s 18 22 mph 1004.7mb 76f 73f
4:50pm 10.5ft 10s 7s 18 25 mph 1004.5mb 76f 74f
3:50pm 9ft 10s 7s 18 22 mph 1004.3mb 76f 74f
2:50pm 9.5ft 9s 7s 18 22 mph 1004.1mb 76f 74f
1:50pm 9.5ft 10s 7s 18 22 mph 1004.3mb 76f 74f
12:50pm 10ft 10s 8s 18 22 mph 1005.1mb 75f 74f
11:50am 10ft 10s 8s 16 20 mph 1006.1mb 75f 74f
10:50am 9ft 10s 8s 16 18 mph 1006.9mb 75f 74f
9:50am  -   -   -  16 18 mph 1007.4mb 75f 73f
8:50am  -   -   -  13 18 mph 1007.1mb 74f 73f
7:50am 11ft 11s 8s 13 18 mph 1006.6mb 74f 73f
6:50am 11ft 10s 8s 13 18 mph 1005.8mb 74f 73f
5:50am 10.5ft 10s 8s 13 18 mph 1005.3mb 74f 73f
4:50am  -   -   -  13 16 mph 1005.4mb 74f 73f
3:50am  -   -   -  11 16 mph 1005.6mb 74f 73f
2:50am 9.5ft 11s 8s 11 13 mph 1005.9mb 74f 72f
1:50am 11ft 11s 8s 9 11 mph 1006.4mb 74f 72f
12:50am 11ft 11s 8s 9 16 mph 1006.8mb 74f 71f
Wed 12/24 11:50pm 10ft 11s 8s 2 7 mph 1007.6mb 74f 72f
10:50pm  -   -   -  2 4 mph 1008.2mb 74f 71f
9:50pm  -   -   -  7 11 mph 1008.7mb 74f 72f
8:50pm  -   -   -  4 9 mph 1008.4mb 74f 71f
7:50pm 12.5ft 11s 8s 9 13 mph 1008.4mb 74f 70f
6:50pm 12ft 11s 8s 13 20 mph 1007.8mb 74f 70f
5:50pm 12.5ft 11s 8s 13 18 mph 1006.8mb 74f 71f
4:50pm 14ft 11s 8s 16 20 mph 1006.6mb 74f 71f
3:50pm 13.5ft 11s 8s 20 22 mph 1006.7mb 74f 73f
2:50pm 15ft 11s 8s 16 27 mph 1007.1mb 74f 71f
1:50pm 14ft 11s 8s 7 11 mph 1007.6mb 74f 70f
12:50pm 15ft 11s 8s 11 16 mph 1008.5mb 74f 68f
11:50am 17ft 14s 8s 16 20 mph 1010.5mb 74f 71f
10:50am 16.5ft 13s 9s 18 27 mph 1010.9mb 74f 71f
9:50am 16ft 11s 9s 16 20 mph 1011.2mb 74f 71f
8:50am 15ft 12s 9s 13 22 mph 1011.1mb 74f 70f
7:50am 15ft 11s 9s 18 22 mph 1010.7mb 74f 72f
6:50am 15ft 10s 9s 13 20 mph 1009.8mb 74f 72f
5:50am 15.5ft 11s 9s 18 22 mph 1009.4mb 74f 73f
4:50am 16.5ft 12s 9s 16 22 mph 1009.1mb 74f 73f
3:50am  -   -   -  7 11 mph 1009.7mb 75f 70f
2:50am 15ft 11s 9s 11 16 mph 1009.9mb 75f 70f
1:50am 15ft 11s 9s 9 16 mph 1010.4mb 75f 70f
12:50am 14ft 10s 8s 13 18 mph 1010.7mb 75f 71f
Tue 12/23 10:50pm  -   -   -  16
mph
1011.1mb 74f 72f
9:50pm 13ft 13s 8s 18 22 mph 1011.4mb 74f 72f
8:50pm 15ft 9s 8s 16 20 mph 1011.1mb 74f 72f
7:50pm  -   -   -  9 11 mph 1011.6mb 74f 71f
6:50pm 14ft 10s 8s 9 11 mph 1011.7mb 75f 71f
5:50pm  -   -   -  9 13 mph 1011.3mb 75f 70f
4:50pm  -   -   -  16 20 mph 1011mb 75f 68f
3:50pm  -   -   -  25
mph
1010.4mb 75f 70f
2:50pm 16ft 8s 8s 27 34 mph 1010.4mb 75f 70f
1:50pm 15ft 9s 8s 25 31 mph 1010.9mb 75f 70f
12:50pm 15.5ft 15s 8s 27 34 mph 1011.5mb 75f 70f
11:50am 15ft 8s 8s 29 36 mph 1012.1mb 75f 69f
10:50am 14ft 9s 8s 27 31 mph 1013.5mb 75f 70f
9:50am 14ft 10s 8s 25 31 mph 1014.7mb 75f 69f
8:50am 13.5ft 15s 8s 22 29 mph 1014.6mb 75f 70f
7:50am 15ft 15s 8s 22 27 mph 1014.6mb 75f 70f
6:50am 15.5ft 15s 8s 22 27 mph 1014.3mb 75f 70f